createdAt,value
2024-03-15T00:01:04.900Z,100409.75
2024-03-15T00:03:31.865Z,100407.31
2024-03-15T00:05:59.009Z,100406.78
2024-03-15T00:08:26.072Z,100407.47
2024-03-15T00:10:52.955Z,100407.31
2024-03-15T00:13:20.011Z,100408.81
2024-03-15T00:15:47.192Z,100398.88
2024-03-15T00:18:14.259Z,100397.69
2024-03-15T00:20:41.055Z,100401.34
2024-03-15T00:23:09.376Z,100397.38
2024-03-15T00:25:36.372Z,100393.38
2024-03-15T00:28:03.792Z,100389.53
2024-03-15T00:30:30.980Z,100386.97
2024-03-15T00:32:58.974Z,100398.91
2024-03-15T00:35:26.235Z,100388.41
2024-03-15T00:37:53.102Z,100384.63
2024-03-15T00:40:19.941Z,100388.28
2024-03-15T00:42:46.642Z,100384.13
2024-03-15T00:45:13.603Z,100376.50
2024-03-15T00:47:40.692Z,100366.09
2024-03-15T00:50:07.853Z,100373.72
2024-03-15T00:52:34.755Z,100360.94
2024-03-15T00:55:01.594Z,100364.75
2024-03-15T00:57:28.390Z,100360.06
2024-03-15T00:59:55.176Z,100357.56
2024-03-15T01:02:21.985Z,100361.09
2024-03-15T01:04:48.877Z,100356.13
2024-03-15T01:07:15.826Z,100354.44
2024-03-15T01:09:42.773Z,100357.25
2024-03-15T01:12:09.566Z,100349.63
2024-03-15T01:14:36.382Z,100354.06
2024-03-15T01:17:03.125Z,100353.78
2024-03-15T01:19:33.802Z,100361.59
2024-03-15T01:22:01.760Z,100347.63
2024-03-15T01:24:30.001Z,100359.44
2024-03-15T01:26:58.243Z,100354.13
2024-03-15T01:29:25.961Z,100345.84
2024-03-15T01:31:53.046Z,100346.84
2024-03-15T01:34:19.951Z,100351.78
2024-03-15T01:36:46.918Z,100352.59
2024-03-15T01:39:13.890Z,100355.41
2024-03-15T01:41:41.051Z,100347.16
2024-03-15T01:44:08.357Z,100350.97
2024-03-15T01:46:36.649Z,100350.28
2024-03-15T01:49:03.753Z,100339.31
2024-03-15T01:51:31.983Z,100349.78
2024-03-15T01:54:01.477Z,100350.38
2024-03-15T01:56:28.958Z,100343.41
2024-03-15T01:58:56.150Z,100342.91
2024-03-15T02:01:23.078Z,100343.72
2024-03-15T02:03:50.433Z,100342.78
2024-03-15T02:06:17.301Z,100338.63
2024-03-15T02:08:44.762Z,100340.50
2024-03-15T02:11:12.387Z,100347.31
2024-03-15T02:13:39.638Z,100345.66
2024-03-15T02:16:06.743Z,100340.91
2024-03-15T02:18:34.237Z,100346.22
2024-03-15T02:21:01.079Z,100337.75
2024-03-15T02:23:30.617Z,100337.25
2024-03-15T02:25:57.785Z,100345.59
2024-03-15T02:28:24.563Z,100348.91
2024-03-15T02:30:51.547Z,100337.47
2024-03-15T02:33:19.388Z,100350.75
2024-03-15T02:35:47.684Z,100343.44
2024-03-15T02:38:14.694Z,100349.44
2024-03-15T02:40:41.450Z,100358.72
2024-03-15T02:43:08.408Z,100355.69
2024-03-15T02:45:36.314Z,100347.56
2024-03-15T02:48:03.153Z,100351.25
2024-03-15T02:50:30.091Z,100343.91
2024-03-15T02:52:57.079Z,100353.84
2024-03-15T02:55:24.198Z,100344.91
2024-03-15T02:57:51.451Z,100348.88
2024-03-15T03:00:18.438Z,100354.53
2024-03-15T03:02:45.473Z,100346.91
2024-03-15T03:05:13.570Z,100356.06
2024-03-15T03:07:40.462Z,100344.28
2024-03-15T03:10:07.739Z,100340.94
2024-03-15T03:12:34.822Z,100344.41
2024-03-15T03:15:01.707Z,100331.63
2024-03-15T03:17:28.472Z,100338.97
2024-03-15T03:19:55.328Z,100340.78
2024-03-15T03:22:22.094Z,100341.91
2024-03-15T03:24:49.330Z,100342.78
2024-03-15T03:27:16.257Z,100339.59
2024-03-15T03:29:43.177Z,100336.72
2024-03-15T03:32:12.877Z,100340.53
2024-03-15T03:34:40.394Z,100334.88
2024-03-15T03:37:07.268Z,100336.03
2024-03-15T03:39:34.142Z,100338.31
2024-03-15T03:42:03.836Z,100334.47
2024-03-15T03:44:30.685Z,100336.25
2024-03-15T03:46:57.544Z,100338.66
2024-03-15T03:49:24.561Z,100347.56
2024-03-15T03:51:51.526Z,100342.41
2024-03-15T03:54:18.447Z,100342.06
2024-03-15T03:56:45.985Z,100340.53
2024-03-15T03:59:12.901Z,100331.22
2024-03-15T04:01:39.771Z,100337.66
2024-03-15T04:04:07.289Z,100336.63
2024-03-15T04:06:34.483Z,100336.00
2024-03-15T04:09:01.935Z,100330.84
2024-03-15T04:11:28.803Z,100335.66
2024-03-15T04:13:55.560Z,100339.03
2024-03-15T04:16:23.219Z,100348.59
2024-03-15T04:18:50.135Z,100344.41
2024-03-15T04:21:17.667Z,100332.75
2024-03-15T04:23:44.753Z,100345.88
2024-03-15T04:26:11.660Z,100348.41
2024-03-15T04:28:39.326Z,100337.28
2024-03-15T04:31:07.072Z,100349.00
2024-03-15T04:33:34.614Z,100351.34
2024-03-15T04:36:05.981Z,100347.31
2024-03-15T04:38:33.707Z,100347.69
2024-03-15T04:41:11.009Z,100345.47
2024-03-15T04:43:38.231Z,100348.56
2024-03-15T04:46:05.554Z,100342.22
2024-03-15T04:48:32.677Z,100343.19
2024-03-15T04:50:59.563Z,100352.69
2024-03-15T04:53:26.376Z,100354.78
2024-03-15T04:55:53.697Z,100354.94
2024-03-15T04:58:22.399Z,100347.31
2024-03-15T05:00:51.348Z,100353.88
2024-03-15T05:03:18.554Z,100353.19
2024-03-15T05:05:45.537Z,100363.53
2024-03-15T05:08:12.302Z,100367.00
2024-03-15T05:10:39.111Z,100364.50
2024-03-15T05:13:07.968Z,100366.69
2024-03-15T05:15:35.175Z,100369.06
2024-03-15T05:18:02.478Z,100368.22
2024-03-15T05:20:29.287Z,100366.28
2024-03-15T05:22:56.009Z,100360.44
2024-03-15T05:25:23.158Z,100369.06
2024-03-15T05:27:50.216Z,100362.06
2024-03-15T05:30:19.601Z,100368.59
2024-03-15T05:32:47.186Z,100377.44
2024-03-15T05:35:19.630Z,100378.25
2024-03-15T05:37:46.859Z,100375.81
2024-03-15T05:40:14.068Z,100378.88
2024-03-15T05:42:41.015Z,100379.66
2024-03-15T05:45:08.355Z,100382.13
2024-03-15T05:47:35.293Z,100390.69
2024-03-15T05:50:05.028Z,100384.34
2024-03-15T05:52:35.657Z,100380.84
2024-03-15T05:55:03.170Z,100384.78
2024-03-15T05:57:31.008Z,100389.47
2024-03-15T05:59:59.429Z,100386.50
2024-03-15T06:02:26.257Z,100380.97
2024-03-15T06:04:53.568Z,100382.53
2024-03-15T06:07:20.414Z,100381.78
2024-03-15T06:09:48.003Z,100386.13
2024-03-15T06:12:15.272Z,100386.88
2024-03-15T06:14:42.195Z,100388.56
2024-03-15T06:17:08.912Z,100385.97
2024-03-15T06:19:35.641Z,100398.47
2024-03-15T06:22:02.489Z,100393.03
2024-03-15T06:24:29.217Z,100388.22
2024-03-15T06:26:57.828Z,100385.59
2024-03-15T06:29:33.762Z,100384.13
2024-03-15T06:32:04.292Z,100389.31
2024-03-15T06:34:33.704Z,100392.72
2024-03-15T06:37:03.311Z,100405.00
2024-03-15T06:39:39.289Z,100383.41
2024-03-15T06:42:32.397Z,100405.22
2024-03-15T06:45:09.688Z,100402.59
2024-03-15T06:47:40.482Z,100411.22
2024-03-15T06:50:10.080Z,100411.41
2024-03-15T06:52:36.927Z,100413.28
2024-03-15T06:55:04.924Z,100412.94
2024-03-15T06:57:35.142Z,100409.25
2024-03-15T07:00:02.239Z,100415.63
2024-03-15T07:02:31.610Z,100410.13
2024-03-15T07:04:58.509Z,100406.78
2024-03-15T07:07:25.510Z,100417.59
2024-03-15T07:09:52.470Z,100415.41
2024-03-15T07:12:19.696Z,100421.56
2024-03-15T07:14:49.619Z,100417.56
2024-03-15T07:17:17.286Z,100425.56
2024-03-15T07:19:44.715Z,100421.22
2024-03-15T07:22:11.866Z,100424.53
2024-03-15T07:24:38.989Z,100425.03
2024-03-15T07:27:06.114Z,100431.88
2024-03-15T07:29:33.533Z,100432.84
2024-03-15T07:32:00.642Z,100432.69
2024-03-15T07:34:28.134Z,100437.38
2024-03-15T07:36:57.948Z,100429.50
2024-03-15T07:39:30.429Z,100437.31
2024-03-15T07:42:00.900Z,100441.47
2024-03-15T07:44:29.153Z,100435.16
2024-03-15T07:46:59.373Z,100440.69
2024-03-15T07:49:26.487Z,100445.03
2024-03-15T07:51:53.352Z,100440.50
2024-03-15T07:54:22.829Z,100443.69
2024-03-15T07:56:50.695Z,100446.00
2024-03-15T07:59:19.985Z,100454.97
2024-03-15T08:01:47.089Z,100453.34
2024-03-15T08:04:15.728Z,100445.66
2024-03-15T08:06:42.773Z,100443.00
2024-03-15T08:09:12.722Z,100454.31
2024-03-15T08:11:40.297Z,100453.63
2024-03-15T08:14:07.233Z,100443.16
2024-03-15T08:16:36.978Z,100452.66
2024-03-15T08:19:10.341Z,100451.50
2024-03-15T08:21:38.693Z,100449.13
2024-03-15T08:24:06.801Z,100444.81
2024-03-15T08:26:33.789Z,100448.31
2024-03-15T08:29:01.723Z,100446.31
2024-03-15T08:31:28.979Z,100450.97
2024-03-15T08:33:55.910Z,100449.63
2024-03-15T08:36:25.518Z,100450.34
2024-03-15T08:38:52.808Z,100454.31
2024-03-15T08:41:19.655Z,100450.63
2024-03-15T08:43:46.992Z,100438.66
2024-03-15T08:46:13.921Z,100440.47
2024-03-15T08:48:41.113Z,100433.31
2024-03-15T08:51:09.630Z,100448.81
2024-03-15T08:53:37.157Z,100448.28
2024-03-15T08:56:04.870Z,100444.91
2024-03-15T08:58:32.999Z,100446.94
2024-03-15T09:01:00.116Z,100442.22
2024-03-15T09:03:27.394Z,100437.75
2024-03-15T09:05:54.949Z,100446.56
2024-03-15T09:08:21.830Z,100436.72
2024-03-15T09:10:48.688Z,100440.53
2024-03-15T09:13:17.738Z,100440.53
2024-03-15T09:15:44.966Z,100440.88
2024-03-15T09:18:12.909Z,100439.00
2024-03-15T09:20:44.366Z,100449.44
2024-03-15T09:23:13.571Z,100433.75
2024-03-15T09:25:40.598Z,100439.59
2024-03-15T09:28:10.946Z,100438.34
2024-03-15T09:30:50.902Z,100443.47
2024-03-15T09:33:29.403Z,100439.44
2024-03-15T09:35:57.343Z,100433.94
2024-03-15T09:38:24.387Z,100432.56
2024-03-15T09:40:58.976Z,100427.28
2024-03-15T09:43:28.277Z,100421.81
2024-03-15T09:45:56.259Z,100427.66
2024-03-15T09:48:25.578Z,100424.63
2024-03-15T09:50:55.274Z,100420.78
2024-03-15T09:53:22.317Z,100414.06
2024-03-15T09:55:54.499Z,100417.84
2024-03-15T09:58:24.607Z,100413.69
2024-03-15T10:00:52.035Z,100420.78
2024-03-15T10:03:19.754Z,100415.75
2024-03-15T10:05:46.746Z,100418.97
2024-03-15T10:08:14.493Z,100415.06
2024-03-15T10:10:46.583Z,100415.84
2024-03-15T10:13:15.784Z,100408.84
2024-03-15T10:15:47.428Z,100412.63
2024-03-15T10:18:15.695Z,100407.94
2024-03-15T10:20:43.538Z,100417.25
2024-03-15T10:23:12.478Z,100407.31
2024-03-15T10:25:39.973Z,100398.19
2024-03-15T10:28:12.483Z,100398.06
2024-03-15T10:30:41.312Z,100403.78
2024-03-15T10:33:09.468Z,100396.59
2024-03-15T10:35:37.475Z,100396.81
2024-03-15T10:38:06.272Z,100403.25
2024-03-15T10:40:35.588Z,100406.13
2024-03-15T10:43:03.804Z,100399.03
2024-03-15T10:45:31.231Z,100407.53
2024-03-15T10:47:59.029Z,100393.88
2024-03-15T10:50:31.528Z,100396.56
2024-03-15T10:52:58.715Z,100395.63
2024-03-15T10:55:27.499Z,100396.63
2024-03-15T10:57:59.551Z,100403.97
2024-03-15T11:00:29.388Z,100398.44
2024-03-15T11:02:57.857Z,100405.59
2024-03-15T11:05:32.788Z,100398.72
2024-03-15T11:08:13.421Z,100401.97
2024-03-15T11:10:44.166Z,100397.38
2024-03-15T11:13:13.402Z,100401.84
2024-03-15T11:15:40.996Z,100400.31
2024-03-15T11:18:09.883Z,100395.16
2024-03-15T11:20:54.831Z,100387.97
2024-03-15T11:23:27.343Z,100386.19
2024-03-15T11:25:58.388Z,100390.94
2024-03-15T11:28:30.709Z,100387.72
2024-03-15T11:31:01.513Z,100380.56
2024-03-15T11:33:30.166Z,100385.78
2024-03-15T11:35:59.336Z,100384.63
2024-03-15T11:38:27.419Z,100382.03
2024-03-15T11:40:57.328Z,100372.59
2024-03-15T11:43:24.210Z,100372.81
2024-03-15T11:45:51.932Z,100373.50
2024-03-15T11:48:21.635Z,100376.22
2024-03-15T11:50:50.525Z,100371.25
2024-03-15T11:53:19.591Z,100373.50
2024-03-15T11:55:47.894Z,100369.91
2024-03-15T11:58:19.830Z,100365.03
2024-03-15T12:00:49.819Z,100367.81
2024-03-15T12:03:18.085Z,100366.34
2024-03-15T12:05:45.484Z,100369.28
2024-03-15T12:08:14.786Z,100371.97
2024-03-15T12:10:44.443Z,100357.31
2024-03-15T12:13:32.757Z,100345.94
2024-03-15T12:16:02.001Z,100348.41
2024-03-15T12:18:30.798Z,100349.59
2024-03-15T12:20:58.073Z,100341.91
2024-03-15T12:23:25.286Z,100338.78
2024-03-15T12:25:53.633Z,100336.38
2024-03-15T12:28:22.174Z,100341.56
2024-03-15T12:30:51.035Z,100335.22
2024-03-15T12:33:18.177Z,100325.97
2024-03-15T12:35:46.110Z,100328.91
2024-03-15T12:38:15.480Z,100326.25
2024-03-15T12:40:45.415Z,100320.72
2024-03-15T12:43:12.243Z,100322.59
2024-03-15T12:45:43.370Z,100322.38
2024-03-15T12:48:12.755Z,100319.13
2024-03-15T12:50:41.435Z,100323.34
2024-03-15T12:53:17.882Z,100312.69
2024-03-15T12:55:44.698Z,100314.16
2024-03-15T12:58:11.808Z,100309.22
2024-03-15T13:00:39.082Z,100312.75
2024-03-15T13:03:06.998Z,100310.94
2024-03-15T13:05:35.248Z,100313.63
2024-03-15T13:08:02.610Z,100301.63
2024-03-15T13:10:30.212Z,100312.47
2024-03-15T13:12:58.043Z,100301.75
2024-03-15T13:15:25.238Z,100309.84
2024-03-15T13:17:56.976Z,100313.53
2024-03-15T13:20:24.741Z,100309.06
2024-03-15T13:22:55.454Z,100308.00
2024-03-15T13:25:35.177Z,100306.13
2024-03-15T13:28:06.287Z,100299.34
2024-03-15T13:30:34.022Z,100307.38
2024-03-15T13:33:02.526Z,100304.06
2024-03-15T13:35:30.278Z,100303.44
2024-03-15T13:37:57.682Z,100308.41
2024-03-15T13:40:26.911Z,100300.75
2024-03-15T13:42:55.354Z,100309.81
2024-03-15T13:45:24.596Z,100310.13
2024-03-15T13:47:56.025Z,100301.63
2024-03-15T13:50:23.745Z,100297.88
2024-03-15T13:52:53.900Z,100296.44
2024-03-15T13:55:23.020Z,100293.34
2024-03-15T13:57:50.590Z,100303.25
2024-03-15T14:00:36.157Z,100290.88
2024-03-15T14:03:04.420Z,100287.59
2024-03-15T14:05:40.008Z,100288.00
2024-03-15T14:08:10.435Z,100289.84
2024-03-15T14:10:39.527Z,100281.91
2024-03-15T14:13:08.086Z,100285.81
2024-03-15T14:15:40.132Z,100290.72
2024-03-15T14:18:11.930Z,100283.31
2024-03-15T14:20:40.455Z,100283.31
2024-03-15T14:23:07.854Z,100275.97
2024-03-15T14:25:35.278Z,100274.13
2024-03-15T14:28:04.606Z,100273.75
2024-03-15T14:30:34.642Z,100273.53
2024-03-15T14:33:02.826Z,100273.78
2024-03-15T14:35:30.684Z,100280.22
2024-03-15T14:37:57.785Z,100270.13
2024-03-15T14:40:25.402Z,100265.56
2024-03-15T14:42:56.414Z,100265.81
2024-03-15T14:45:25.033Z,100270.94
2024-03-15T14:47:55.700Z,100266.44
2024-03-15T14:50:25.445Z,100269.97
2024-03-15T14:52:52.367Z,100263.44
2024-03-15T14:55:19.543Z,100267.25
2024-03-15T14:57:46.567Z,100263.50
2024-03-15T15:00:14.312Z,100261.34
2024-03-15T15:02:43.931Z,100267.66
2024-03-15T15:05:11.405Z,100252.13
2024-03-15T15:07:38.321Z,100260.16
2024-03-15T15:10:09.196Z,100244.69
2024-03-15T15:12:37.297Z,100247.59
2024-03-15T15:15:08.063Z,100245.69
2024-03-15T15:17:35.554Z,100254.28
2024-03-15T15:20:10.316Z,100255.63
2024-03-15T15:22:39.440Z,100255.19
2024-03-15T15:25:11.912Z,100250.78
2024-03-15T15:27:40.080Z,100257.13
2024-03-15T15:30:08.618Z,100252.72
2024-03-15T15:32:35.530Z,100254.25
2024-03-15T15:35:09.277Z,100258.38
2024-03-15T15:37:39.500Z,100252.56
2024-03-15T15:40:18.340Z,100266.00
2024-03-15T15:42:49.905Z,100267.00
2024-03-15T15:45:18.812Z,100263.34
2024-03-15T15:47:46.652Z,100266.72
2024-03-15T15:50:21.048Z,100263.38
2024-03-15T15:52:49.408Z,100268.72
2024-03-15T15:55:17.559Z,100270.13
2024-03-15T15:57:44.757Z,100273.84
2024-03-15T16:00:16.285Z,100265.53
2024-03-15T16:02:43.743Z,100265.53
2024-03-15T16:05:11.138Z,100262.41
2024-03-15T16:07:38.250Z,100273.94
2024-03-15T16:10:05.852Z,100273.28
2024-03-15T16:12:33.595Z,100272.47
2024-03-15T16:15:02.688Z,100266.41
2024-03-15T16:17:31.034Z,100267.22
2024-03-15T16:19:57.884Z,100276.81
2024-03-15T16:22:24.756Z,100273.66
2024-03-15T16:24:53.265Z,100281.03
2024-03-15T16:27:20.057Z,100276.91
2024-03-15T16:29:46.743Z,100280.75
2024-03-15T16:32:13.516Z,100279.75
2024-03-15T16:34:41.624Z,100284.28
2024-03-15T16:37:08.441Z,100287.47
2024-03-15T16:39:35.347Z,100288.31
2024-03-15T16:42:02.282Z,100281.22
2024-03-15T16:44:28.969Z,100278.91
2024-03-15T16:46:56.177Z,100285.59
2024-03-15T16:49:22.929Z,100285.97
2024-03-15T16:51:52.208Z,100290.47
2024-03-15T16:54:19.400Z,100287.34
2024-03-15T16:56:46.520Z,100287.25
2024-03-15T16:59:13.518Z,100300.41
2024-03-15T17:01:40.837Z,100293.78
2024-03-15T17:04:11.136Z,100302.16
2024-03-15T17:06:39.371Z,100303.16
2024-03-15T17:09:13.721Z,100305.19
2024-03-15T17:11:40.944Z,100304.53
2024-03-15T17:14:07.743Z,100307.75
2024-03-15T17:16:34.824Z,100304.34
2024-03-15T17:19:03.529Z,100305.53
2024-03-15T17:21:30.523Z,100313.03
2024-03-15T17:23:57.472Z,100317.06
2024-03-15T17:26:24.215Z,100316.44
2024-03-15T17:28:51.098Z,100327.09
2024-03-15T17:31:17.878Z,100325.81
2024-03-15T17:33:45.919Z,100322.28
2024-03-15T17:36:13.137Z,100322.84
2024-03-15T17:38:40.672Z,100331.00
2024-03-15T17:41:07.647Z,100333.88
2024-03-15T17:43:34.507Z,100330.72
2024-03-15T17:46:01.320Z,100335.69
2024-03-15T17:48:28.592Z,100347.75
2024-03-15T17:50:55.834Z,100342.91
2024-03-15T17:53:22.630Z,100352.03
2024-03-15T17:55:49.379Z,100347.44
2024-03-15T17:58:16.153Z,100346.44
2024-03-15T18:00:43.100Z,100358.22
2024-03-15T18:03:09.981Z,100358.88
2024-03-15T18:05:37.850Z,100356.38
2024-03-15T18:08:05.155Z,100360.53
2024-03-15T18:10:32.099Z,100350.03
2024-03-15T18:12:59.017Z,100356.69
2024-03-15T18:15:26.006Z,100353.84
2024-03-15T18:17:53.185Z,100356.69
2024-03-15T18:20:20.423Z,100353.84
2024-03-15T18:22:47.161Z,100362.19
2024-03-15T18:25:14.076Z,100361.16
2024-03-15T18:27:40.924Z,100361.34
2024-03-15T18:30:10.016Z,100364.69
2024-03-15T18:32:37.993Z,100361.84
2024-03-15T18:35:05.701Z,100361.34
2024-03-15T18:37:33.849Z,100357.31
2024-03-15T18:40:00.845Z,100361.16
2024-03-15T18:42:28.031Z,100362.34
2024-03-15T18:44:57.917Z,100360.53
2024-03-15T18:47:24.746Z,100361.34
2024-03-15T18:49:53.070Z,100365.19
2024-03-15T18:52:20.214Z,100368.34
2024-03-15T18:54:54.186Z,100368.00
2024-03-15T18:57:22.848Z,100361.97
2024-03-15T18:59:58.559Z,100375.00
2024-03-15T19:02:30.297Z,100377.31
2024-03-15T19:04:57.116Z,100374.47
2024-03-15T19:07:23.869Z,100366.00
2024-03-15T19:09:50.763Z,100376.19
2024-03-15T19:12:17.551Z,100370.34
2024-03-15T19:14:44.375Z,100381.88
2024-03-15T19:17:15.102Z,100372.19
2024-03-15T19:19:42.159Z,100377.53
2024-03-15T19:22:09.121Z,100377.72
2024-03-15T19:24:36.012Z,100369.41
2024-03-15T19:27:02.696Z,100371.78
2024-03-15T19:29:30.494Z,100387.63
2024-03-15T19:31:57.422Z,100383.28
2024-03-15T19:34:24.323Z,100380.59
2024-03-15T19:36:52.125Z,100383.63
2024-03-15T19:39:18.940Z,100381.78
2024-03-15T19:41:45.863Z,100387.66
2024-03-15T19:44:12.663Z,100384.03
2024-03-15T19:46:39.312Z,100387.03
2024-03-15T19:49:06.310Z,100387.38
2024-03-15T19:51:33.637Z,100380.56
2024-03-15T19:54:00.403Z,100387.38
2024-03-15T19:56:27.135Z,100373.78
2024-03-15T19:58:53.896Z,100373.81
2024-03-15T20:01:20.773Z,100367.97
2024-03-15T20:03:47.641Z,100387.81
2024-03-15T20:06:14.638Z,100380.88
2024-03-15T20:08:41.588Z,100372.91
2024-03-15T20:11:13.306Z,100376.72
2024-03-15T20:13:43.229Z,100383.84
2024-03-15T20:16:10.372Z,100378.69
2024-03-15T20:18:37.380Z,100383.22
2024-03-15T20:21:05.062Z,100385.88
2024-03-15T20:23:31.876Z,100389.22
2024-03-15T20:25:58.632Z,100383.06
2024-03-15T20:28:25.288Z,100390.25
2024-03-15T20:30:54.323Z,100385.09
2024-03-15T20:33:21.157Z,100388.75
2024-03-15T20:35:48.078Z,100387.78
2024-03-15T20:38:17.530Z,100382.28
2024-03-15T20:40:48.238Z,100389.44
2024-03-15T20:43:15.193Z,100386.59
2024-03-15T20:45:42.112Z,100393.44
2024-03-15T20:48:09.012Z,100386.63
2024-03-15T20:50:35.759Z,100390.78
2024-03-15T20:53:02.994Z,100387.94
2024-03-15T20:55:29.857Z,100388.59
2024-03-15T20:57:56.647Z,100385.13
2024-03-15T21:00:23.432Z,100391.63
2024-03-15T21:02:50.938Z,100394.63
2024-03-15T21:05:17.972Z,100396.47
2024-03-15T21:07:44.728Z,100397.28
2024-03-15T21:10:11.866Z,100392.59
2024-03-15T21:12:39.276Z,100403.78
2024-03-15T21:15:09.816Z,100403.25
2024-03-15T21:17:38.427Z,100403.44
2024-03-15T21:20:13.780Z,100398.97
2024-03-15T21:22:41.100Z,100410.94
2024-03-15T21:25:09.362Z,100408.59
2024-03-15T21:27:36.369Z,100402.97
2024-03-15T21:30:03.607Z,100401.28
2024-03-15T21:32:30.662Z,100400.78
2024-03-15T21:34:57.455Z,100408.28
2024-03-15T21:37:24.730Z,100405.78
2024-03-15T21:39:51.709Z,100415.09
2024-03-15T21:42:18.884Z,100409.44
2024-03-15T21:44:47.213Z,100413.09
2024-03-15T21:47:13.971Z,100415.41
2024-03-15T21:49:40.760Z,100421.41
2024-03-15T21:52:07.741Z,100422.56
2024-03-15T21:54:34.559Z,100428.88
2024-03-15T21:57:01.272Z,100427.56
2024-03-15T21:59:28.193Z,100431.88
2024-03-15T22:02:00.184Z,100425.75
2024-03-15T22:04:31.675Z,100425.72
2024-03-15T22:06:59.000Z,100426.06
2024-03-15T22:09:27.506Z,100428.53
2024-03-15T22:11:54.617Z,100421.72
2024-03-15T22:14:21.496Z,100419.19
2024-03-15T22:16:48.351Z,100427.34
2024-03-15T22:19:15.132Z,100424.50
2024-03-15T22:21:42.025Z,100424.34
2024-03-15T22:24:09.613Z,100419.63
2024-03-15T22:26:36.485Z,100419.22
2024-03-15T22:29:03.236Z,100421.16
2024-03-15T22:31:30.920Z,100430.78
2024-03-15T22:33:57.678Z,100429.97
2024-03-15T22:36:24.746Z,100423.56
2024-03-15T22:38:53.984Z,100425.84
2024-03-15T22:41:24.468Z,100425.25
2024-03-15T22:43:52.389Z,100430.22
2024-03-15T22:46:19.244Z,100432.50
2024-03-15T22:48:46.565Z,100432.66
2024-03-15T22:51:13.487Z,100425.28
2024-03-15T22:53:40.685Z,100438.69
2024-03-15T22:56:07.525Z,100439.00
2024-03-15T22:58:34.263Z,100447.56
2024-03-15T23:01:06.555Z,100441.38
2024-03-15T23:03:36.018Z,100445.47
2024-03-15T23:06:07.479Z,100438.59
2024-03-15T23:08:34.278Z,100438.03
2024-03-15T23:11:01.072Z,100437.28
2024-03-15T23:13:28.207Z,100440.25
2024-03-15T23:15:55.984Z,100437.13
2024-03-15T23:18:23.029Z,100439.31
2024-03-15T23:20:50.772Z,100443.34
2024-03-15T23:23:17.622Z,100443.81
2024-03-15T23:25:45.633Z,100434.31
2024-03-15T23:28:12.642Z,100436.66
2024-03-15T23:30:39.378Z,100437.59
2024-03-15T23:33:07.270Z,100443.88
2024-03-15T23:35:34.358Z,100444.56
2024-03-15T23:38:01.145Z,100442.53
2024-03-15T23:40:28.010Z,100443.28
2024-03-15T23:42:54.856Z,100442.28
2024-03-15T23:45:21.577Z,100445.09
2024-03-15T23:47:48.350Z,100443.88
2024-03-15T23:50:15.264Z,100443.28
2024-03-15T23:52:41.984Z,100445.25
2024-03-15T23:55:09.621Z,100449.03
2024-03-15T23:57:37.087Z,100441.16
